Mt Rainier
Paradise
Latest observation 09/01 16:00 PDT
| Time (PDT) | Temp °F 5400' | RH % 5400' | Min mph 5380' | Spd mph 5380' | Gust mph 5380' | Dir ° 5380' | Pcp1 in 5400' | PcpSum in 5400' | 24Sno in 5400' | SnoHt in 5400' | SR W/m² 5380' |
|---|---|---|---|---|---|---|---|---|---|---|---|
| 09/01 16:00 | 51 | 92 | 0 | 1 | 9 | 262 | 0.00 | 0.00 | 16.6 | 4.9 | 2920 |
| 09/01 15:00 | 55 | 85 | 0 | 1 | 10 | 266 | 0.00 | 0.00 | 18.1 | 5.2 | 2956 |
| 09/01 14:00 | 59 | 63 | 0 | 0 | 11 | 261 | 0.00 | 0.00 | 18.4 | 5.5 | 2961 |
| 09/01 13:00 | 58 | 67 | 0 | 0 | 8 | 262 | 0.00 | 0.00 | 16.6 | 5.5 | 2954 |
| 09/01 12:00 | 56 | 81 | 0 | 3 | 9 | 267 | 0.00 | 0.00 | 17.7 | 5.1 | 2946 |
| 09/01 11:00 | 54 | 79 | 0 | 2 | 6 | 255 | 0.00 | 0.00 | 16.6 | 5.5 | 2913 |
| 09/01 10:00 | 52 | 81 | 0 | 0 | 3 | 264 | 0.00 | 0.00 | 17.7 | 5.1 | 2852 |
| 09/01 09:00 | 51 | 80 | 0 | 0 | 2 | 22 | 0.00 | 0.00 | 17.6 | 5.0 | 2796 |
| 09/01 08:00 | 50 | 83 | 0 | 1 | 3 | 313 | 0.00 | 0.00 | 16.9 | 4.8 | 2714 |
| 09/01 07:00 | 50 | 79 | 0 | 0 | 2 | 296 | 0.00 | 0.00 | 17.3 | 4.7 | 2335 |
| 09/01 06:00 | 51 | 77 | 0 | 0 | 3 | 329 | 0.00 | 0.00 | 17.4 | 4.6 | 495 |
| 09/01 05:00 | 52 | 62 | 0 | 0 | 3 | 318 | 0.00 | 0.00 | 17.4 | 4.2 | 348 |
| 09/01 04:00 | 54 | 54 | 0 | 1 | 4 | 292 | 0.00 | 0.00 | 18.0 | 4.8 | 413 |
| 09/01 03:00 | 55 | 48 | 0 | 1 | 4 | 328 | 0.00 | 0.00 | 18.7 | 4.7 | 420 |
| 09/01 02:00 | 56 | 49 | 0 | 1 | 4 | 357 | 0.00 | 0.00 | 17.8 | 4.7 | 401 |
| 09/01 01:00 | 55 | 55 | 0 | 1 | 2 | 40 | 0.00 | 0.00 | 17.4 | 4.9 | 425 |
| 09/01 00:00 | 56 | 49 | 0 | 0 | 1 | 23 | 0.00 | 0.00 | 18.2 | 4.7 | 442 |
| 08/31 23:00 | 56 | 54 | 0 | 1 | 2 | 57 | 0.00 | 0.00 | 17.6 | 4.9 | 469 |
| 08/31 22:00 | 58 | 48 | 0 | 0 | 2 | 43 | 0.00 | 0.00 | 18.8 | 4.9 | 529 |
| 08/31 21:00 | 59 | 47 | 0 | 1 | 3 | 354 | 0.00 | 0.00 | 17.9 | 5.0 | 1253 |
| 08/31 20:00 | 59 | 52 | 0 | 1 | 3 | 339 | 0.00 | 0.00 | 15.1 | 5.0 | 2470 |
| 08/31 19:00 | 60 | 69 | 0 | 2 | 6 | 259 | 0.00 | 0.00 | 15.3 | 5.6 | 2705 |
| 08/31 18:00 | 68 | 53 | 0 | 2 | 6 | 277 | 0.00 | 0.00 | 16.7 | 5.7 | 1856 |
| 08/31 17:00 | 69 | 37 | 0 | 2 | 8 | 253 | 0.00 | 0.00 | 17.6 | 5.7 | 1988 |

